createdAt,value
2018-12-21T00:02:01.216Z,6.60
2018-12-21T00:04:29.497Z,6.70
2018-12-21T00:06:57.904Z,6.80
2018-12-21T00:09:26.102Z,6.70
2018-12-21T00:11:54.339Z,6.70
2018-12-21T00:14:22.617Z,6.70
2018-12-21T00:16:50.809Z,6.70
2018-12-21T00:19:19.126Z,6.70
2018-12-21T00:21:47.500Z,6.70
2018-12-21T00:24:15.682Z,6.70
2018-12-21T00:26:43.965Z,6.70
2018-12-21T00:29:12.100Z,6.80
2018-12-21T00:31:46.028Z,6.70
2018-12-21T00:34:20.139Z,6.70
2018-12-21T00:36:54.257Z,6.80
2018-12-21T00:39:28.283Z,6.70
2018-12-21T00:41:56.437Z,6.70
2018-12-21T00:44:26.677Z,6.80
2018-12-21T00:46:56.232Z,6.80
2018-12-21T00:49:25.960Z,6.90
2018-12-21T00:51:54.256Z,6.80
2018-12-21T00:54:22.536Z,6.80
2018-12-21T00:56:50.722Z,6.90
2018-12-21T00:59:18.838Z,6.80
2018-12-21T01:01:47.129Z,6.90
2018-12-21T01:04:15.313Z,6.90
2018-12-21T01:06:43.460Z,6.80
2018-12-21T01:09:11.777Z,6.90
2018-12-21T01:11:40.023Z,6.90
2018-12-21T01:14:08.191Z,7.00
2018-12-21T01:16:36.356Z,7.00
2018-12-21T01:19:04.568Z,6.90
2018-12-21T01:21:38.782Z,7.00
2018-12-21T01:24:04.454Z,7.00
2018-12-21T01:26:32.648Z,7.00
2018-12-21T01:29:01.078Z,7.00
2018-12-21T01:31:29.307Z,7.00
2018-12-21T01:33:57.540Z,7.10
2018-12-21T01:36:25.773Z,7.00
2018-12-21T01:38:53.990Z,7.00
2018-12-21T01:41:22.272Z,7.10
2018-12-21T01:43:50.645Z,7.10
2018-12-21T01:46:18.907Z,7.00
2018-12-21T01:48:47.188Z,7.00
2018-12-21T01:51:15.499Z,7.10
2018-12-21T01:53:43.734Z,7.10
2018-12-21T01:56:11.968Z,7.00
2018-12-21T01:58:40.144Z,7.10
2018-12-21T02:01:08.346Z,7.10
2018-12-21T02:03:36.821Z,7.10
2018-12-21T02:06:05.017Z,7.20
2018-12-21T02:08:33.305Z,7.20
2018-12-21T02:11:01.487Z,7.20
2018-12-21T02:13:29.725Z,7.20
2018-12-21T02:15:57.883Z,7.20
2018-12-21T02:18:26.099Z,7.10
2018-12-21T02:23:51.363Z,7.10
2018-12-21T02:26:19.609Z,7.20
2018-12-21T02:28:47.910Z,7.20
2018-12-21T02:31:16.117Z,7.10
2018-12-21T02:33:44.301Z,7.10
2018-12-21T02:36:12.455Z,7.10
2018-12-21T02:38:40.688Z,7.10
2018-12-21T02:41:08.944Z,7.10
2018-12-21T02:43:37.466Z,7.10
2018-12-21T02:46:05.798Z,7.10
2018-12-21T02:48:34.096Z,7.20
2018-12-21T02:51:02.277Z,7.10
2018-12-21T02:53:30.563Z,7.10
2018-12-21T02:55:58.872Z,7.10
2018-12-21T02:58:27.213Z,7.10
2018-12-21T03:00:55.366Z,7.10
2018-12-21T03:03:23.664Z,7.10
2018-12-21T03:05:51.941Z,7.10
2018-12-21T03:08:20.218Z,7.10
2018-12-21T03:10:48.404Z,7.00
2018-12-21T03:13:16.611Z,7.00
2018-12-21T03:15:44.858Z,7.00
2018-12-21T03:18:13.261Z,7.00
2018-12-21T03:20:41.538Z,7.00
2018-12-21T03:23:09.677Z,7.00
2018-12-21T03:25:37.931Z,7.00
2018-12-21T03:28:06.343Z,7.10
2018-12-21T03:30:34.516Z,7.00
2018-12-21T03:33:02.803Z,7.10
2018-12-21T03:35:31.008Z,7.00
2018-12-21T03:37:59.171Z,6.90
2018-12-21T03:40:27.510Z,7.00
2018-12-21T03:42:55.761Z,7.00
2018-12-21T03:45:24.004Z,7.00
2018-12-21T03:47:52.217Z,7.00
2018-12-21T03:50:20.404Z,7.00
2018-12-21T03:52:48.619Z,6.90
2018-12-21T03:55:16.818Z,6.90
2018-12-21T03:57:44.975Z,6.90
2018-12-21T04:00:13.214Z,6.90
2018-12-21T04:02:41.383Z,6.80
2018-12-21T04:05:09.672Z,6.90
2018-12-21T04:07:37.930Z,6.90
2018-12-21T04:10:06.197Z,6.90
2018-12-21T04:12:34.436Z,7.00
2018-12-21T04:15:02.610Z,6.90
2018-12-21T04:17:31.073Z,7.00
2018-12-21T04:19:59.741Z,6.90
2018-12-21T04:22:33.969Z,6.90
2018-12-21T04:24:58.249Z,7.00
2018-12-21T04:27:26.446Z,7.00
2018-12-21T04:29:54.679Z,6.90
2018-12-21T04:32:22.952Z,6.90
2018-12-21T04:34:51.165Z,6.90
2018-12-21T04:37:19.788Z,7.00
2018-12-21T04:39:47.990Z,7.00
2018-12-21T04:42:16.216Z,7.00
2018-12-21T04:44:44.345Z,6.90
2018-12-21T04:47:12.612Z,7.00
2018-12-21T04:49:41.011Z,7.00
2018-12-21T04:52:09.518Z,6.90
2018-12-21T04:54:37.838Z,7.00
2018-12-21T04:57:06.152Z,7.00
2018-12-21T04:59:34.427Z,7.00
2018-12-21T05:02:02.766Z,6.90
2018-12-21T05:04:31.041Z,6.90
2018-12-21T05:06:59.224Z,7.00
2018-12-21T05:09:27.514Z,7.00
2018-12-21T05:11:55.787Z,7.00
2018-12-21T05:14:24.010Z,7.00
2018-12-21T05:16:52.250Z,7.10
2018-12-21T05:19:20.431Z,7.10
2018-12-21T05:21:48.679Z,7.10
2018-12-21T05:24:17.016Z,7.00
2018-12-21T05:26:45.166Z,7.00
2018-12-21T05:29:13.335Z,7.00
2018-12-21T05:31:41.742Z,7.00
2018-12-21T05:34:09.995Z,7.10
2018-12-21T05:36:38.187Z,7.00
2018-12-21T05:39:06.652Z,7.00
2018-12-21T05:41:35.140Z,7.00
2018-12-21T05:44:03.424Z,7.00
2018-12-21T05:46:31.660Z,7.10
2018-12-21T05:48:59.876Z,7.10
2018-12-21T05:51:28.148Z,7.10
2018-12-21T05:53:56.452Z,7.00
2018-12-21T05:56:24.795Z,7.10
2018-12-21T05:58:53.033Z,7.00
2018-12-21T06:01:21.216Z,7.00
2018-12-21T06:03:49.476Z,7.00
2018-12-21T06:06:17.668Z,7.10
2018-12-21T06:08:45.827Z,7.10
2018-12-21T06:11:13.996Z,7.20
2018-12-21T06:13:42.361Z,7.20
2018-12-21T06:16:10.498Z,7.10
2018-12-21T06:18:38.694Z,7.20
2018-12-21T06:21:07.060Z,7.10
2018-12-21T06:23:35.533Z,7.10
2018-12-21T06:26:03.715Z,7.00
2018-12-21T06:28:31.935Z,7.10
2018-12-21T06:31:00.114Z,7.10
2018-12-21T06:33:28.288Z,7.10
2018-12-21T06:35:56.525Z,7.00
2018-12-21T06:38:24.746Z,7.00
2018-12-21T06:40:52.952Z,7.00
2018-12-21T06:43:21.618Z,7.00
2018-12-21T06:45:50.608Z,7.10
2018-12-21T06:48:18.849Z,7.10
2018-12-21T06:50:47.046Z,7.10
2018-12-21T06:53:18.016Z,7.10
2018-12-21T06:55:45.539Z,7.20
2018-12-21T06:58:13.795Z,7.00
2018-12-21T07:00:41.978Z,7.00
2018-12-21T07:03:17.013Z,7.00
2018-12-21T07:08:06.948Z,7.00
2018-12-21T07:10:35.260Z,7.00
2018-12-21T07:13:03.468Z,7.00
2018-12-21T07:15:31.668Z,6.90
2018-12-21T07:18:00.011Z,7.00
2018-12-21T07:20:28.219Z,7.00
2018-12-21T07:22:56.459Z,6.90
2018-12-21T07:25:24.899Z,6.90
2018-12-21T07:27:53.983Z,6.90
2018-12-21T07:30:22.317Z,6.80
2018-12-21T07:32:50.606Z,6.90
2018-12-21T07:35:18.950Z,6.90
2018-12-21T07:37:47.327Z,6.90
2018-12-21T07:40:15.607Z,6.90
2018-12-21T07:42:43.804Z,6.90
2018-12-21T07:45:12.157Z,6.90
2018-12-21T07:47:40.413Z,6.90
2018-12-21T07:50:10.098Z,6.90
2018-12-21T07:52:38.548Z,6.90
2018-12-21T07:55:06.983Z,6.90
2018-12-21T07:57:35.131Z,7.00
2018-12-21T08:00:04.123Z,7.00
2018-12-21T08:02:32.323Z,7.00
2018-12-21T08:05:00.545Z,7.00
2018-12-21T08:07:28.739Z,6.90
2018-12-21T08:09:56.973Z,6.90
2018-12-21T08:12:27.270Z,6.90
2018-12-21T08:14:55.473Z,6.90
2018-12-21T08:17:23.627Z,7.00
2018-12-21T08:19:51.814Z,7.00
2018-12-21T08:22:20.011Z,7.00
2018-12-21T08:24:48.227Z,7.00
2018-12-21T08:27:16.489Z,7.00
2018-12-21T08:29:44.730Z,7.00
2018-12-21T08:32:12.883Z,7.00
2018-12-21T08:34:41.107Z,7.00
2018-12-21T08:37:09.309Z,7.00
2018-12-21T08:39:37.544Z,7.00
2018-12-21T08:42:05.777Z,7.00
2018-12-21T08:44:33.975Z,7.00
2018-12-21T08:47:02.141Z,7.00
2018-12-21T08:49:32.297Z,7.00
2018-12-21T08:52:00.531Z,7.00
2018-12-21T08:54:28.730Z,7.10
2018-12-21T08:56:56.974Z,7.00
2018-12-21T08:59:25.192Z,7.10
2018-12-21T09:01:53.383Z,7.10
2018-12-21T09:04:21.616Z,7.10
2018-12-21T09:06:49.816Z,7.10
2018-12-21T09:09:18.022Z,7.10
2018-12-21T09:11:46.223Z,7.10
2018-12-21T09:14:14.421Z,7.10
2018-12-21T09:16:42.612Z,7.10
2018-12-21T09:19:12.224Z,7.00
2018-12-21T09:21:40.642Z,7.00
2018-12-21T09:24:08.872Z,7.10
2018-12-21T09:26:37.036Z,7.10
2018-12-21T09:29:05.466Z,7.10
2018-12-21T09:31:33.714Z,7.10
2018-12-21T09:34:01.903Z,7.10
2018-12-21T09:36:30.057Z,7.10
2018-12-21T09:38:58.207Z,7.10
2018-12-21T09:41:26.358Z,7.20
2018-12-21T09:43:54.527Z,7.10
2018-12-21T09:46:22.704Z,7.20
2018-12-21T09:48:50.906Z,7.10
2018-12-21T09:51:19.072Z,7.20
2018-12-21T09:53:47.275Z,7.10
2018-12-21T09:56:15.496Z,7.20
2018-12-21T09:58:43.647Z,7.10
2018-12-21T10:01:11.811Z,7.20
2018-12-21T10:03:39.974Z,7.20
2018-12-21T10:06:09.557Z,7.20
2018-12-21T10:08:37.973Z,7.20
2018-12-21T10:11:06.168Z,7.20
2018-12-21T10:13:34.344Z,7.20
2018-12-21T10:16:02.550Z,7.20
2018-12-21T10:18:30.770Z,7.20
2018-12-21T10:20:58.947Z,7.20
2018-12-21T10:23:27.121Z,7.20
2018-12-21T10:25:55.303Z,7.10
2018-12-21T10:28:24.802Z,7.10
2018-12-21T10:30:53.247Z,7.10
2018-12-21T10:33:21.487Z,7.10
2018-12-21T10:35:49.831Z,7.10
2018-12-21T10:38:18.070Z,7.10
2018-12-21T10:40:46.457Z,7.00
2018-12-21T10:43:14.633Z,7.00
2018-12-21T10:45:42.936Z,7.10
2018-12-21T10:48:11.139Z,7.00
2018-12-21T10:50:39.338Z,7.00
2018-12-21T10:53:07.509Z,7.00
2018-12-21T10:55:37.677Z,7.00
2018-12-21T10:58:06.061Z,6.90
2018-12-21T11:00:34.344Z,7.00
2018-12-21T11:03:02.718Z,7.00
2018-12-21T11:05:30.897Z,7.00
2018-12-21T11:07:59.339Z,7.00
2018-12-21T11:10:27.648Z,7.00
2018-12-21T11:12:55.812Z,7.00
2018-12-21T11:15:24.050Z,6.90
2018-12-21T11:17:52.374Z,7.00
2018-12-21T11:20:20.771Z,6.90
2018-12-21T11:22:48.989Z,6.90
2018-12-21T11:25:17.230Z,7.00
2018-12-21T11:27:45.479Z,7.00
2018-12-21T11:30:13.757Z,7.00
2018-12-21T11:32:41.953Z,7.00
2018-12-21T11:35:10.173Z,7.10
2018-12-21T11:37:38.457Z,7.10
2018-12-21T11:40:06.809Z,7.10
2018-12-21T11:42:35.115Z,7.10
2018-12-21T11:45:03.941Z,7.20
2018-12-21T11:47:32.166Z,7.20
2018-12-21T11:50:00.379Z,7.10
2018-12-21T11:52:28.632Z,7.10
2018-12-21T11:54:58.993Z,7.20
2018-12-21T11:57:27.142Z,7.20
2018-12-21T11:59:55.401Z,7.20
2018-12-21T12:02:23.763Z,7.10
2018-12-21T12:04:52.028Z,7.20
2018-12-21T12:07:20.250Z,7.30
2018-12-21T12:09:48.468Z,7.40
2018-12-21T12:12:16.727Z,7.40
2018-12-21T12:14:44.960Z,7.30
2018-12-21T12:17:13.178Z,7.30
2018-12-21T12:19:41.419Z,7.30
2018-12-21T12:22:09.601Z,7.30
2018-12-21T12:24:38.126Z,7.20
2018-12-21T12:27:06.409Z,7.30
2018-12-21T12:29:34.591Z,7.30
2018-12-21T12:32:02.760Z,7.30
2018-12-21T12:34:30.938Z,7.30
2018-12-21T12:36:59.229Z,7.30
2018-12-21T12:39:27.431Z,7.30
2018-12-21T12:41:55.676Z,7.20
2018-12-21T12:44:24.043Z,7.30
2018-12-21T12:46:52.226Z,7.30
2018-12-21T12:49:20.470Z,7.30
2018-12-21T12:51:48.687Z,7.20
2018-12-21T12:54:16.897Z,7.20
2018-12-21T12:56:45.199Z,7.20
2018-12-21T12:59:13.660Z,7.30
2018-12-21T13:01:42.004Z,7.30
2018-12-21T13:04:10.441Z,7.30
2018-12-21T13:06:38.719Z,7.30
2018-12-21T13:09:06.930Z,7.20
2018-12-21T13:11:35.111Z,7.20
2018-12-21T13:14:03.383Z,7.20
2018-12-21T13:16:31.621Z,7.20
2018-12-21T13:18:59.881Z,7.20
2018-12-21T13:21:28.037Z,7.20
2018-12-21T13:23:56.300Z,7.20
2018-12-21T13:26:24.541Z,7.30
2018-12-21T13:28:52.752Z,7.20
2018-12-21T13:31:21.117Z,7.20
2018-12-21T13:33:49.474Z,7.30
2018-12-21T13:36:17.783Z,7.30
2018-12-21T13:38:46.261Z,7.30
2018-12-21T13:41:14.648Z,7.40
2018-12-21T13:43:43.091Z,7.30
2018-12-21T13:46:11.303Z,7.30
2018-12-21T13:48:39.465Z,7.20
2018-12-21T13:51:07.676Z,7.30
2018-12-21T13:53:35.854Z,7.20
2018-12-21T13:56:04.135Z,7.20
2018-12-21T13:58:32.308Z,7.30
2018-12-21T14:01:00.471Z,7.20
2018-12-21T14:03:28.669Z,7.20
2018-12-21T14:05:56.855Z,7.20
2018-12-21T14:08:25.045Z,7.20
2018-12-21T14:10:53.435Z,7.30
2018-12-21T14:13:21.694Z,7.30
2018-12-21T14:15:49.882Z,7.20
2018-12-21T14:18:18.119Z,7.20
2018-12-21T14:20:46.416Z,7.20
2018-12-21T14:23:14.916Z,7.20
2018-12-21T14:25:43.281Z,7.20
2018-12-21T14:28:11.657Z,7.20
2018-12-21T14:30:39.969Z,7.20
2018-12-21T14:33:08.253Z,7.20
2018-12-21T14:35:36.636Z,7.30
2018-12-21T14:38:05.144Z,7.30
2018-12-21T14:40:33.459Z,7.30
2018-12-21T14:43:01.722Z,7.30
2018-12-21T14:45:30.001Z,7.30
2018-12-21T14:47:58.703Z,7.30
2018-12-21T14:50:26.988Z,7.20
2018-12-21T14:52:55.211Z,7.20
2018-12-21T14:55:23.421Z,7.20
2018-12-21T14:57:51.628Z,7.30
2018-12-21T15:00:19.911Z,7.30
2018-12-21T15:02:48.359Z,7.20
2018-12-21T15:05:16.518Z,7.20
2018-12-21T15:07:44.659Z,7.20
2018-12-21T15:10:14.747Z,7.20
2018-12-21T15:12:43.127Z,7.10
2018-12-21T15:15:11.386Z,7.10
2018-12-21T15:17:39.596Z,7.20
2018-12-21T15:20:08.168Z,7.10
2018-12-21T15:22:36.370Z,7.20
2018-12-21T15:25:05.804Z,7.20
2018-12-21T15:27:33.973Z,7.20
2018-12-21T15:30:02.298Z,7.20
2018-12-21T15:32:30.541Z,7.20
2018-12-21T15:34:58.692Z,7.20
2018-12-21T15:37:26.846Z,7.20
2018-12-21T15:39:55.027Z,7.20
2018-12-21T15:42:23.227Z,7.20
2018-12-21T15:44:51.407Z,7.20
2018-12-21T15:47:19.638Z,7.10
2018-12-21T15:49:47.830Z,7.20
2018-12-21T15:52:16.138Z,7.10
2018-12-21T15:54:44.329Z,7.20
2018-12-21T15:57:12.606Z,7.20
2018-12-21T15:59:40.743Z,7.20
2018-12-21T16:02:09.402Z,7.10
2018-12-21T16:04:37.730Z,7.10
2018-12-21T16:07:06.046Z,7.10
2018-12-21T16:09:34.309Z,7.10
2018-12-21T16:12:02.573Z,7.10
2018-12-21T16:14:34.474Z,7.10
2018-12-21T16:17:01.033Z,7.10
2018-12-21T16:19:30.565Z,7.20
2018-12-21T16:21:59.077Z,7.20
2018-12-21T16:24:27.347Z,7.10
2018-12-21T16:26:55.519Z,7.10
2018-12-21T16:29:23.730Z,7.10
2018-12-21T16:31:51.975Z,7.10
2018-12-21T16:34:20.117Z,7.10
2018-12-21T16:36:48.304Z,7.10
2018-12-21T16:39:16.520Z,7.10
2018-12-21T16:41:44.725Z,7.10
2018-12-21T16:44:12.914Z,7.20
2018-12-21T16:46:41.043Z,7.10
2018-12-21T16:49:09.277Z,7.10
2018-12-21T16:51:37.498Z,7.10
2018-12-21T16:54:05.763Z,7.10
2018-12-21T16:56:33.955Z,7.10
2018-12-21T16:59:02.117Z,7.10
2018-12-21T17:01:31.655Z,7.20
2018-12-21T17:04:00.036Z,7.20
2018-12-21T17:06:28.268Z,7.10
2018-12-21T17:08:56.478Z,7.10
2018-12-21T17:11:24.793Z,7.10
2018-12-21T17:13:52.998Z,7.10
2018-12-21T17:16:21.293Z,7.10
2018-12-21T17:18:49.545Z,7.10
2018-12-21T17:21:17.712Z,7.00
2018-12-21T17:23:45.859Z,7.00
2018-12-21T17:26:21.140Z,7.10
2018-12-21T17:28:44.499Z,7.10
2018-12-21T17:31:12.813Z,7.10
2018-12-21T17:33:41.281Z,7.20
2018-12-21T17:36:09.503Z,7.10
2018-12-21T17:38:37.684Z,7.20
2018-12-21T17:41:05.996Z,7.10
2018-12-21T17:43:34.163Z,7.20
2018-12-21T17:46:02.714Z,7.20
2018-12-21T17:48:30.874Z,7.10
2018-12-21T17:50:59.099Z,7.10
2018-12-21T17:53:27.290Z,7.10
2018-12-21T17:55:55.504Z,7.10
2018-12-21T17:58:23.756Z,7.20
2018-12-21T18:00:52.115Z,7.20
2018-12-21T18:03:22.657Z,7.10
2018-12-21T18:05:50.869Z,7.10
2018-12-21T18:08:19.041Z,7.10
2018-12-21T18:10:47.307Z,7.20
2018-12-21T18:13:15.465Z,7.20
2018-12-21T18:15:43.690Z,7.20
2018-12-21T18:18:11.876Z,7.20
2018-12-21T18:20:40.080Z,7.20
2018-12-21T18:23:10.649Z,7.30
2018-12-21T18:25:38.880Z,7.20
2018-12-21T18:28:11.123Z,7.20
2018-12-21T18:30:38.264Z,7.20
2018-12-21T18:33:10.922Z,7.20
2018-12-21T18:35:36.908Z,7.30
2018-12-21T18:38:05.152Z,7.30
2018-12-21T18:40:33.450Z,7.30
2018-12-21T18:43:01.660Z,7.30
2018-12-21T18:45:29.839Z,7.30
2018-12-21T18:47:58.035Z,7.40
2018-12-21T18:50:26.223Z,7.40
2018-12-21T18:52:54.494Z,7.30
2018-12-21T18:55:22.742Z,7.40
2018-12-21T18:57:51.018Z,7.40
2018-12-21T19:00:19.361Z,7.40
2018-12-21T19:02:47.636Z,7.50
2018-12-21T19:05:16.102Z,7.50
2018-12-21T19:07:44.338Z,7.50
2018-12-21T19:10:12.587Z,7.50
2018-12-21T19:12:40.976Z,7.60
2018-12-21T19:15:09.267Z,7.60
2018-12-21T19:17:38.889Z,7.70
2018-12-21T19:20:08.871Z,7.70
2018-12-21T19:22:37.406Z,7.70
2018-12-21T19:25:06.837Z,7.80
2018-12-21T19:27:35.030Z,7.90
2018-12-21T19:30:03.882Z,7.90
2018-12-21T19:32:32.126Z,8.00
2018-12-21T19:35:00.435Z,8.10
2018-12-21T19:37:28.898Z,8.20
2018-12-21T19:39:57.081Z,8.20
2018-12-21T19:42:25.329Z,8.40
2018-12-21T19:44:53.495Z,8.40
2018-12-21T19:47:21.765Z,8.60
2018-12-21T19:49:49.985Z,8.60
2018-12-21T19:52:18.241Z,8.70
2018-12-21T19:54:47.075Z,8.70
2018-12-21T19:57:15.238Z,8.80
2018-12-21T19:59:43.408Z,8.90
2018-12-21T20:02:11.575Z,8.90
2018-12-21T20:04:39.792Z,8.90
2018-12-21T20:07:08.062Z,8.90
2018-12-21T20:09:36.248Z,8.90
2018-12-21T20:12:04.605Z,9.00
2018-12-21T20:14:32.798Z,9.00
2018-12-21T20:17:00.942Z,9.00
2018-12-21T20:19:29.214Z,9.00
2018-12-21T20:21:57.450Z,9.00
2018-12-21T20:24:25.780Z,9.00
2018-12-21T20:26:54.010Z,8.90
2018-12-21T20:29:22.244Z,8.90
2018-12-21T20:31:50.405Z,9.00
2018-12-21T20:34:18.779Z,8.90
2018-12-21T20:36:47.048Z,8.90
2018-12-21T20:39:15.272Z,8.90
2018-12-21T20:41:43.609Z,8.90
2018-12-21T20:44:11.820Z,8.80
2018-12-21T20:46:40.043Z,8.80
2018-12-21T20:49:08.262Z,8.80
2018-12-21T20:51:38.240Z,8.70
2018-12-21T20:54:06.718Z,8.70
2018-12-21T20:56:34.882Z,8.70
2018-12-21T20:59:03.404Z,8.70
2018-12-21T21:01:31.665Z,8.70
2018-12-21T21:03:59.898Z,8.70
2018-12-21T21:06:28.176Z,8.70
2018-12-21T21:08:56.527Z,8.70
2018-12-21T21:11:26.051Z,8.70
2018-12-21T21:13:54.491Z,8.60
2018-12-21T21:16:22.724Z,8.60
2018-12-21T21:18:50.933Z,8.60
2018-12-21T21:21:19.153Z,8.60
2018-12-21T21:23:47.352Z,8.60
2018-12-21T21:26:15.593Z,8.60
2018-12-21T21:28:43.793Z,8.60
2018-12-21T21:31:12.045Z,8.60
2018-12-21T21:33:40.237Z,8.50
2018-12-21T21:36:08.460Z,8.50
2018-12-21T21:38:36.932Z,8.50
2018-12-21T21:41:05.152Z,8.50
2018-12-21T21:43:33.361Z,8.50
2018-12-21T21:46:02.215Z,8.50
2018-12-21T21:48:30.413Z,8.50
2018-12-21T21:50:58.684Z,8.40
2018-12-21T21:53:26.893Z,8.40
2018-12-21T21:55:55.073Z,8.40
2018-12-21T21:58:23.335Z,8.30
2018-12-21T22:00:51.665Z,8.30
2018-12-21T22:03:19.944Z,8.30
2018-12-21T22:05:48.221Z,8.20
2018-12-21T22:08:16.390Z,8.20
2018-12-21T22:10:44.573Z,8.20
2018-12-21T22:13:12.856Z,8.00
2018-12-21T22:15:41.074Z,8.00
2018-12-21T22:18:09.293Z,8.00
2018-12-21T22:20:37.650Z,7.90
2018-12-21T22:23:05.879Z,7.90
2018-12-21T22:25:34.250Z,7.90
2018-12-21T22:28:02.514Z,7.90
2018-12-21T22:30:30.888Z,7.80
2018-12-21T22:32:59.240Z,7.70
2018-12-21T22:35:27.533Z,7.70
2018-12-21T22:37:55.998Z,7.60
2018-12-21T22:40:24.238Z,7.50
2018-12-21T22:42:52.473Z,7.50
2018-12-21T22:45:20.959Z,7.50
2018-12-21T22:47:49.173Z,7.50
2018-12-21T22:50:17.444Z,7.50
2018-12-21T22:52:45.729Z,7.50
2018-12-21T22:55:13.926Z,7.50
2018-12-21T22:57:42.440Z,7.50
2018-12-21T23:00:13.062Z,7.50
2018-12-21T23:02:41.290Z,7.50
2018-12-21T23:05:09.936Z,7.40
2018-12-21T23:07:38.379Z,7.40
2018-12-21T23:10:07.574Z,7.30
2018-12-21T23:12:35.858Z,7.30
2018-12-21T23:15:04.361Z,7.30
2018-12-21T23:17:32.650Z,7.30
2018-12-21T23:20:01.040Z,7.30
2018-12-21T23:22:29.179Z,7.20
2018-12-21T23:24:57.325Z,7.20
2018-12-21T23:27:25.552Z,7.30
2018-12-21T23:29:53.834Z,7.20
2018-12-21T23:32:22.101Z,7.10
2018-12-21T23:34:50.323Z,7.10
2018-12-21T23:37:18.536Z,7.10
2018-12-21T23:39:46.862Z,7.00
2018-12-21T23:42:15.177Z,7.10
2018-12-21T23:44:43.345Z,7.00
2018-12-21T23:47:11.895Z,7.10
2018-12-21T23:49:40.089Z,7.10
2018-12-21T23:52:08.256Z,7.00
2018-12-21T23:54:36.552Z,7.00
2018-12-21T23:57:04.694Z,6.90
2018-12-21T23:59:32.958Z,7.00
